Terminal Aerodrome Forecast
Issued by NWS Jackson, KY

Home | Current Version | Previous Version | Graphics & Text | Print | Product List | Glossary On
Versions: 1 2 3 4 5 6 7 8 9 10 11 12 13 14
729
FTUS43 KJKL 301120
TAFJKL
TAF
KJKL 301120Z 3012/0112 VRB03KT P6SM FEW200
     FM301400 18006KT P6SM FEW200
     FM301700 18008G16KT P6SM FEW200
     FM302200 16006KT P6SM FEW250 WS020/19035KT
     FM010600 18010KT P6SM SCT200 WS020/20045KT
     FM011100 21007KT 3SM -SHRA BR OVC040=

USA.gov is the U.S. government's official web portal to all federal, state and local government web resources and services.